Time;durP1;ratioP1;P1;durP2;ratioP2;P2;SDS_P1;SDS_P2;PMS_P1;PMS_P2;Temp;Humidity;BMP_temperature;BMP_pressure;BME280_temperature;BME280_humidity;BME280_pressure;Samples;Min_cycle;Max_cycle;Signal;HPM_P1;HPM_P2
2023/06/29 00:01:32;;;;;;;7.00;6.40;;;17.80;99.90;;;;;;5002168;28;20237;-67
2023/06/29 00:03:58;;;;;;;6.00;5.50;;;17.70;99.90;;;;;;5006532;28;20453;-66
2023/06/29 00:06:24;;;;;;;6.47;5.90;;;17.70;99.90;;;;;;5009741;28;20480;-67
2023/06/29 00:08:49;;;;;;;6.80;6.30;;;17.60;99.90;;;;;;5007432;28;20449;-66
2023/06/29 00:11:15;;;;;;;7.10;6.40;;;17.40;99.90;;;;;;5003816;28;20190;-66
2023/06/29 00:13:41;;;;;;;7.30;6.60;;;17.30;99.90;;;;;;5010725;28;20244;-66
2023/06/29 00:16:07;;;;;;;5.70;5.30;;;17.30;99.90;;;;;;5009313;28;20300;-67
2023/06/29 00:18:33;;;;;;;6.57;6.10;;;17.40;99.90;;;;;;4999411;28;20999;-67
2023/06/29 00:21:00;;;;;;;6.90;6.33;;;17.40;99.90;;;;;;5001600;28;20571;-66
2023/06/29 00:23:26;;;;;;;6.87;6.30;;;17.40;99.90;;;;;;5007125;28;20438;-67
2023/06/29 00:25:56;;;;;;;6.50;5.90;;;17.40;99.90;;;;;;5008167;28;20478;-67
2023/06/29 00:28:21;;;;;;;8.27;5.97;;;17.40;99.90;;;;;;5003269;28;20441;-67
2023/06/29 00:30:47;;;;;;;13.03;6.97;;;17.40;99.90;;;;;;5003749;28;20500;-67
2023/06/29 00:33:12;;;;;;;5.90;5.40;;;17.40;99.90;;;;;;5007778;28;20183;-67
2023/06/29 00:35:38;;;;;;;7.70;6.03;;;17.50;99.90;;;;;;5003554;28;20211;-67
2023/06/29 00:38:04;;;;;;;6.83;6.23;;;17.50;99.90;;;;;;5002878;28;20270;-66
2023/06/29 00:40:29;;;;;;;6.37;5.87;;;17.50;99.90;;;;;;5011288;28;20187;-67
2023/06/29 00:42:55;;;;;;;7.20;6.60;;;17.50;99.90;;;;;;5002430;28;20188;-67
2023/06/29 00:45:20;;;;;;;7.03;6.30;;;17.50;99.90;;;;;;5007099;28;20787;-66
2023/06/29 00:47:46;;;;;;;6.17;5.77;;;17.40;99.90;;;;;;5010154;28;20203;-67
2023/06/29 00:50:13;;;;;;;5.63;5.23;;;17.30;99.90;;;;;;5001673;28;20175;-66
2023/06/29 00:52:39;;;;;;;7.43;6.50;;;17.30;99.90;;;;;;5005640;28;20186;-67
2023/06/29 00:55:04;;;;;;;5.93;5.40;;;17.10;99.90;;;;;;5005531;28;20441;-66
2023/06/29 00:57:30;;;;;;;7.20;6.60;;;17.00;99.90;;;;;;5008272;28;20430;-66
2023/06/29 00:59:59;;;;;;;7.57;6.87;;;17.00;99.90;;;;;;5010472;28;20250;-66
2023/06/29 01:02:26;;;;;;;6.80;6.23;;;17.00;99.90;;;;;;5009762;28;20195;-66
2023/06/29 01:04:51;;;;;;;6.80;6.30;;;17.10;99.90;;;;;;5002382;28;20462;-66
2023/06/29 01:07:30;;;;;;;6.90;6.30;;;17.20;99.90;;;;;;5009922;28;21080;-67
2023/06/29 01:09:58;;;;;;;6.50;6.00;;;17.10;99.90;;;;;;5012981;28;20177;-66
2023/06/29 01:12:24;;;;;;;6.80;6.33;;;17.10;99.90;;;;;;5008803;28;20970;-66
2023/06/29 01:14:51;;;;;;;6.23;5.73;;;17.10;99.90;;;;;;5008544;28;20438;-67
2023/06/29 01:17:20;;;;;;;6.93;5.80;;;17.10;99.90;;;;;;5008157;28;20481;-66
2023/06/29 01:19:49;;;;;;;6.20;5.77;;;17.00;99.90;;;;;;5013839;28;20429;-67
2023/06/29 01:22:20;;;;;;;6.97;6.37;;;16.90;99.90;;;;;;5011861;28;20523;-66
2023/06/29 01:24:46;;;;;;;7.60;6.57;;;16.80;99.90;;;;;;5003475;28;20788;-66
2023/06/29 01:27:13;;;;;;;6.63;6.13;;;16.60;99.90;;;;;;5012174;28;20592;-67
2023/06/29 01:29:39;;;;;;;8.30;7.50;;;16.60;99.90;;;;;;5005226;28;20258;-66
2023/06/29 01:32:07;;;;;;;7.87;7.17;;;16.60;99.90;;;;;;5011561;28;20456;-66
2023/06/29 01:34:34;;;;;;;7.27;6.63;;;16.60;99.90;;;;;;5009142;28;20438;-66
2023/06/29 01:37:07;;;;;;;6.90;6.40;;;16.60;99.90;;;;;;5011088;28;20449;-67
2023/06/29 01:39:44;;;;;;;7.37;6.73;;;16.70;99.90;;;;;;5003169;28;20437;-66
2023/06/29 01:42:11;;;;;;;7.40;6.17;;;16.70;99.90;;;;;;5003923;28;20441;-66
2023/06/29 01:44:37;;;;;;;7.73;6.47;;;16.70;99.90;;;;;;5013495;28;20473;-67
2023/06/29 01:47:04;;;;;;;7.47;6.70;;;16.60;99.90;;;;;;5009352;28;20456;-67
2023/06/29 01:49:30;;;;;;;7.17;6.57;;;16.60;99.90;;;;;;5005792;28;20186;-67
2023/06/29 01:51:55;;;;;;;8.40;7.60;;;16.60;99.90;;;;;;5006675;28;20433;-68
2023/06/29 01:54:21;;;;;;;7.47;6.87;;;16.60;99.90;;;;;;5002184;28;20691;-66
2023/06/29 01:56:46;;;;;;;7.53;7.00;;;16.60;99.90;;;;;;5006296;28;20218;-67
2023/06/29 01:59:12;;;;;;;6.70;6.10;;;16.60;99.90;;;;;;5004974;28;20184;-66
2023/06/29 02:01:37;;;;;;;7.97;7.27;;;16.50;99.90;;;;;;5002516;28;20549;-66
2023/06/29 02:04:03;;;;;;;6.90;6.40;;;16.40;99.90;;;;;;5006588;28;20206;-66
2023/06/29 02:06:29;;;;;;;8.80;7.30;;;16.40;99.90;;;;;;5014282;28;20214;-66
2023/06/29 02:08:54;;;;;;;7.30;6.73;;;16.30;99.90;;;;;;5010419;28;20448;-67
2023/06/29 02:11:20;;;;;;;8.03;7.33;;;16.30;99.90;;;;;;5012057;28;20218;-67
2023/06/29 02:13:46;;;;;;;7.83;7.23;;;16.20;99.90;;;;;;4995870;28;20274;-66
2023/06/29 02:16:11;;;;;;;7.90;7.20;;;16.20;99.90;;;;;;5004626;28;20214;-66
2023/06/29 02:18:37;;;;;;;6.57;6.07;;;16.20;99.90;;;;;;4995216;28;20434;-66
2023/06/29 02:21:02;;;;;;;7.97;7.30;;;16.30;99.90;;;;;;5003690;28;20628;-66
2023/06/29 02:23:28;;;;;;;9.97;7.83;;;16.20;99.90;;;;;;5007370;28;20551;-66
2023/06/29 02:25:54;;;;;;;9.37;7.60;;;16.00;99.90;;;;;;5003544;28;20649;-67
2023/06/29 02:28:19;;;;;;;7.60;6.90;;;16.10;99.90;;;;;;5010540;28;20187;-66
2023/06/29 02:30:44;;;;;;;8.43;6.93;;;16.20;99.90;;;;;;5011433;28;20582;-66
2023/06/29 02:33:10;;;;;;;7.63;6.93;;;16.30;99.90;;;;;;5005123;28;20179;-66
2023/06/29 02:35:35;;;;;;;10.40;6.70;;;16.30;99.90;;;;;;5007136;28;20211;-66
2023/06/29 02:38:01;;;;;;;7.60;6.90;;;16.30;99.90;;;;;;5000474;28;20180;-66
2023/06/29 02:40:26;;;;;;;8.10;7.50;;;16.30;99.90;;;;;;5013473;28;20661;-66
2023/06/29 02:42:52;;;;;;;7.40;6.80;;;16.30;99.90;;;;;;5006678;28;20178;-66
2023/06/29 02:45:18;;;;;;;7.53;6.83;;;16.30;99.90;;;;;;5011614;28;20237;-66
2023/06/29 02:47:43;;;;;;;7.43;6.70;;;16.30;99.90;;;;;;5011144;28;20190;-66
2023/06/29 02:50:09;;;;;;;7.63;6.97;;;16.30;99.90;;;;;;5001704;28;20197;-66
2023/06/29 02:52:34;;;;;;;7.47;6.93;;;16.20;99.90;;;;;;5004536;28;20185;-66
2023/06/29 02:55:00;;;;;;;8.13;7.60;;;16.10;99.90;;;;;;5012484;28;20225;-66
2023/06/29 02:57:25;;;;;;;7.57;6.97;;;16.10;99.90;;;;;;5007967;28;20267;-67
2023/06/29 02:59:51;;;;;;;7.73;7.00;;;16.10;99.90;;;;;;5008625;28;20175;-66
2023/06/29 03:02:16;;;;;;;8.00;7.20;;;16.00;99.90;;;;;;5006951;28;20664;-66
2023/06/29 03:04:42;;;;;;;7.30;6.57;;;15.80;99.90;;;;;;5011734;28;20183;-66
2023/06/29 03:07:07;;;;;;;7.27;6.63;;;15.70;99.90;;;;;;5003406;28;20195;-66
2023/06/29 03:09:33;;;;;;;7.50;7.00;;;15.70;99.90;;;;;;5009677;28;20183;-66
2023/06/29 03:11:58;;;;;;;7.57;6.93;;;15.80;99.90;;;;;;5008689;28;20183;-66
2023/06/29 03:14:24;;;;;;;7.57;7.00;;;15.90;99.90;;;;;;5002654;28;20671;-66
2023/06/29 03:16:50;;;;;;;8.53;7.20;;;15.90;99.90;;;;;;5012380;28;20222;-66
2023/06/29 03:19:15;;;;;;;8.47;7.67;;;16.00;99.90;;;;;;5010867;28;20253;-66
2023/06/29 03:21:41;;;;;;;9.13;6.80;;;15.90;99.90;;;;;;5002948;28;20179;-66
2023/06/29 03:24:06;;;;;;;9.03;8.20;;;15.90;99.90;;;;;;5010520;28;20190;-67
2023/06/29 03:26:32;;;;;;;9.17;8.37;;;15.90;99.90;;;;;;5003140;28;20303;-66
2023/06/29 03:28:57;;;;;;;9.03;8.23;;;15.90;99.90;;;;;;4995539;28;20179;-66
2023/06/29 03:31:22;;;;;;;8.13;7.43;;;15.80;99.90;;;;;;4998869;28;20191;-67
2023/06/29 03:33:48;;;;;;;8.30;7.50;;;15.70;99.90;;;;;;5006017;28;20183;-66
2023/06/29 03:36:15;;;;;;;9.50;8.70;;;15.70;99.90;;;;;;5001453;28;20203;-66
2023/06/29 03:38:40;;;;;;;9.63;8.00;;;15.80;99.90;;;;;;5003078;28;20183;-66
2023/06/29 03:41:06;;;;;;;8.80;8.00;;;15.80;99.90;;;;;;5008275;28;20556;-66
2023/06/29 03:43:31;;;;;;;7.97;7.17;;;15.80;99.90;;;;;;5009747;28;20189;-66
2023/06/29 03:45:58;;;;;;;11.00;8.10;;;15.70;99.90;;;;;;5011153;28;20218;-66
2023/06/29 03:48:27;;;;;;;9.23;8.33;;;15.70;99.90;;;;;;5008530;28;20178;-66
2023/06/29 03:50:56;;;;;;;7.87;7.17;;;15.80;99.90;;;;;;5011178;28;20517;-66
2023/06/29 03:53:22;;;;;;;11.30;8.13;;;15.80;99.90;;;;;;5012422;28;20448;-66
2023/06/29 03:55:48;;;;;;;8.10;7.50;;;15.90;99.90;;;;;;5003424;28;21032;-66
2023/06/29 03:58:14;;;;;;;7.40;6.73;;;16.00;99.90;;;;;;5003798;28;20188;-67
2023/06/29 04:00:40;;;;;;;9.67;7.40;;;16.00;99.90;;;;;;5008656;28;20211;-66
2023/06/29 04:03:05;;;;;;;8.77;7.73;;;16.00;99.90;;;;;;5008745;28;20561;-66
2023/06/29 04:05:31;;;;;;;11.07;8.03;;;16.20;99.90;;;;;;5008507;28;20218;-66
2023/06/29 04:07:57;;;;;;;7.37;6.77;;;16.20;99.90;;;;;;5003567;28;20175;-66
2023/06/29 04:10:23;;;;;;;8.43;7.70;;;16.30;99.90;;;;;;4999538;28;20444;-66
2023/06/29 04:12:48;;;;;;;8.13;7.53;;;16.40;99.90;;;;;;5008857;28;20870;-66
2023/06/29 04:15:14;;;;;;;8.00;7.20;;;16.50;99.90;;;;;;5007556;28;20294;-66
2023/06/29 04:17:40;;;;;;;9.03;8.23;;;16.50;99.90;;;;;;5009589;28;20214;-66
2023/06/29 04:20:06;;;;;;;17.00;8.30;;;16.60;99.90;;;;;;4998474;28;20206;-67
2023/06/29 04:22:31;;;;;;;8.63;7.73;;;16.70;99.90;;;;;;5001289;28;20183;-66
2023/06/29 04:24:57;;;;;;;9.40;7.97;;;16.70;99.90;;;;;;5009492;28;20466;-66
2023/06/29 04:27:22;;;;;;;9.07;7.80;;;16.80;99.90;;;;;;5002273;28;20553;-66
2023/06/29 04:29:47;;;;;;;9.77;8.83;;;16.90;99.90;;;;;;5007800;28;20291;-66
2023/06/29 04:32:13;;;;;;;9.13;8.33;;;16.90;99.90;;;;;;5000656;28;20223;-66
2023/06/29 04:34:39;;;;;;;8.93;8.10;;;17.00;99.90;;;;;;5009314;28;20179;-67
2023/06/29 04:37:05;;;;;;;9.27;8.33;;;17.10;99.90;;;;;;4985526;28;20632;-66
2023/06/29 04:39:31;;;;;;;8.00;7.23;;;17.20;99.90;;;;;;5009666;28;20566;-66
2023/06/29 04:42:01;;;;;;;8.93;8.23;;;17.30;99.90;;;;;;5008668;28;20445;-66
2023/06/29 04:44:31;;;;;;;8.23;7.47;;;17.40;99.90;;;;;;5005925;28;20194;-67
2023/06/29 04:46:59;;;;;;;7.83;7.23;;;17.50;99.90;;;;;;5008833;28;20479;-67
2023/06/29 04:49:27;;;;;;;9.93;7.70;;;17.60;99.90;;;;;;5010015;28;20429;-66
2023/06/29 04:51:55;;;;;;;8.40;7.57;;;17.80;99.90;;;;;;5008212;28;20501;-67
2023/06/29 04:54:21;;;;;;;8.20;7.43;;;17.90;99.90;;;;;;5008478;28;20476;-67
2023/06/29 04:56:47;;;;;;;8.93;8.00;;;18.00;99.90;;;;;;5006174;28;20454;-67
2023/06/29 04:59:13;;;;;;;8.87;7.97;;;18.20;99.90;;;;;;5001077;28;20430;-67
2023/06/29 05:01:38;;;;;;;10.80;9.00;;;18.40;99.90;;;;;;4996754;28;20215;-67
2023/06/29 05:04:04;;;;;;;8.77;7.87;;;18.50;99.90;;;;;;5005752;28;20183;-66
2023/06/29 05:06:29;;;;;;;9.03;8.23;;;18.70;99.90;;;;;;5010558;28;20236;-66
2023/06/29 05:08:55;;;;;;;8.87;7.97;;;18.90;99.90;;;;;;5001340;28;20171;-67
2023/06/29 05:11:20;;;;;;;8.50;7.77;;;19.10;99.90;;;;;;4992427;28;20661;-67
2023/06/29 05:13:46;;;;;;;8.90;8.00;;;19.20;99.90;;;;;;4992383;28;20171;-66
2023/06/29 05:16:12;;;;;;;9.70;8.90;;;19.40;99.90;;;;;;5000404;28;20219;-67
2023/06/29 05:18:37;;;;;;;8.40;7.60;;;19.50;99.90;;;;;;5006588;28;20644;-67
2023/06/29 05:21:03;;;;;;;10.30;8.10;;;19.60;99.90;;;;;;5011958;28;20475;-67
2023/06/29 05:23:29;;;;;;;8.80;7.97;;;19.70;99.90;;;;;;5012119;28;20640;-66
2023/06/29 05:25:54;;;;;;;13.27;8.47;;;19.90;99.90;;;;;;5011707;28;20246;-66
2023/06/29 05:28:20;;;;;;;7.97;7.17;;;20.00;99.90;;;;;;5011333;28;20167;-66
2023/06/29 05:30:45;;;;;;;9.10;8.20;;;20.20;99.90;;;;;;5000498;28;20179;-67
2023/06/29 05:33:11;;;;;;;10.73;8.70;;;20.40;99.90;;;;;;5011469;28;20210;-66
2023/06/29 05:35:37;;;;;;;7.90;7.20;;;20.60;99.90;;;;;;5011730;28;20195;-67
2023/06/29 05:38:02;;;;;;;9.63;7.90;;;20.60;99.90;;;;;;5011408;28;20190;-67
2023/06/29 05:40:29;;;;;;;11.17;8.20;;;20.80;99.90;;;;;;5011542;28;20181;-67
2023/06/29 05:42:54;;;;;;;7.50;6.90;;;20.90;99.90;;;;;;5010207;28;20175;-67
2023/06/29 05:45:20;;;;;;;9.00;8.10;;;20.90;99.90;;;;;;5002250;28;20525;-67
2023/06/29 05:47:45;;;;;;;8.20;7.40;;;20.90;99.90;;;;;;4995847;28;20168;-67
2023/06/29 05:50:11;;;;;;;11.30;8.80;;;20.90;99.90;;;;;;4995406;28;20159;-66
2023/06/29 05:52:37;;;;;;;7.63;6.93;;;21.10;99.90;;;;;;5003771;28;20178;-67
2023/06/29 05:55:03;;;;;;;8.63;7.20;;;21.20;99.90;;;;;;5006724;28;20183;-65
2023/06/29 05:57:29;;;;;;;7.90;6.00;;;21.30;99.90;;;;;;5003447;28;20438;-65
2023/06/29 05:59:55;;;;;;;10.00;6.50;;;21.30;99.90;;;;;;5003334;28;20233;-65
2023/06/29 06:02:21;;;;;;;7.97;6.63;;;21.50;99.90;;;;;;5004037;28;20183;-65
2023/06/29 06:04:46;;;;;;;6.93;5.63;;;21.70;99.90;;;;;;5015005;28;20421;-65
2023/06/29 06:07:14;;;;;;;7.00;6.30;;;21.90;99.90;;;;;;5015044;28;20663;-65
2023/06/29 06:09:40;;;;;;;8.27;5.63;;;21.90;99.90;;;;;;5014578;28;20164;-65
2023/06/29 06:12:06;;;;;;;9.47;5.40;;;21.80;99.90;;;;;;5006813;28;20477;-65
2023/06/29 06:14:31;;;;;;;6.50;4.60;;;22.10;99.90;;;;;;5005980;28;20171;-65
2023/06/29 06:16:57;;;;;;;6.87;5.00;;;22.20;99.90;;;;;;4997594;28;20219;-65
2023/06/29 06:19:22;;;;;;;6.20;5.30;;;22.40;99.90;;;;;;4995127;28;20179;-66
2023/06/29 06:21:48;;;;;;;6.47;5.17;;;22.30;99.90;;;;;;4995088;28;20673;-66
2023/06/29 06:24:13;;;;;;;6.00;5.03;;;22.50;99.90;;;;;;4995103;28;20649;-65
2023/06/29 06:26:39;;;;;;;4.17;3.77;;;22.40;99.90;;;;;;5004101;28;20241;-65
2023/06/29 06:29:04;;;;;;;6.37;5.30;;;22.60;99.90;;;;;;5004056;28;20214;-65
2023/06/29 06:31:30;;;;;;;6.77;4.20;;;22.80;99.90;;;;;;4994952;28;20259;-65
2023/06/29 06:33:57;;;;;;;4.97;4.53;;;22.70;99.90;;;;;;4994992;28;20251;-66
2023/06/29 06:36:24;;;;;;;4.47;4.07;;;22.80;99.70;;;;;;4994965;28;20211;-65
2023/06/29 06:38:50;;;;;;;5.30;3.80;;;23.10;97.60;;;;;;4997684;28;20469;-66
2023/06/29 06:41:16;;;;;;;7.50;4.60;;;23.30;96.50;;;;;;5002889;28;20462;-65
2023/06/29 06:43:41;;;;;;;5.90;4.90;;;23.40;96.20;;;;;;4994818;28;20266;-65
2023/06/29 06:46:07;;;;;;;5.77;4.70;;;23.60;95.50;;;;;;4994509;28;20218;-66
2023/06/29 06:48:32;;;;;;;8.50;4.93;;;23.60;95.80;;;;;;4994414;28;20256;-65
2023/06/29 06:50:58;;;;;;;6.00;4.40;;;23.80;95.50;;;;;;4994628;28;20176;-65
2023/06/29 06:53:23;;;;;;;4.40;4.07;;;23.70;95.60;;;;;;4997580;28;20186;-66
2023/06/29 06:55:49;;;;;;;5.07;4.57;;;24.10;93.70;;;;;;5002373;28;20195;-65
2023/06/29 06:58:14;;;;;;;5.93;4.90;;;24.30;93.10;;;;;;4994274;28;20180;-65
2023/06/29 07:00:40;;;;;;;4.87;4.47;;;24.60;92.30;;;;;;4994517;28;20182;-66
2023/06/29 07:03:05;;;;;;;6.90;4.50;;;24.70;92.60;;;;;;4994416;28;20176;-66
2023/06/29 07:05:31;;;;;;;4.10;3.73;;;24.80;92.00;;;;;;4994192;28;20207;-65
2023/06/29 07:07:56;;;;;;;6.77;4.80;;;24.90;91.90;;;;;;4998097;28;20183;-66
2023/06/29 07:10:22;;;;;;;6.40;4.20;;;24.70;91.10;;;;;;5001052;28;20589;-65
2023/06/29 07:12:47;;;;;;;6.43;4.70;;;24.60;91.50;;;;;;4994327;28;20204;-66
2023/06/29 07:15:13;;;;;;;7.73;4.00;;;25.00;90.90;;;;;;4994014;28;20199;-65
2023/06/29 07:17:38;;;;;;;5.10;4.60;;;25.10;90.00;;;;;;4994224;28;20183;-65
2023/06/29 07:20:05;;;;;;;4.80;4.30;;;25.50;89.10;;;;;;4993804;28;20186;-65
2023/06/29 07:22:31;;;;;;;5.30;4.80;;;25.20;87.90;;;;;;4998442;28;20190;-65
2023/06/29 07:24:57;;;;;;;6.80;5.00;;;25.20;88.00;;;;;;5002030;28;20764;-66
2023/06/29 07:27:23;;;;;;;7.57;4.27;;;25.00;90.60;;;;;;4994069;28;20182;-66
2023/06/29 07:29:48;;;;;;;6.63;4.50;;;25.40;88.90;;;;;;4993637;28;20175;-65
2023/06/29 07:32:14;;;;;;;8.37;4.10;;;25.80;86.60;;;;;;4976440;28;20176;-66
2023/06/29 07:34:39;;;;;;;4.70;4.30;;;26.30;85.80;;;;;;4994984;28;20167;-66
2023/06/29 07:37:05;;;;;;;4.93;4.20;;;26.50;83.70;;;;;;5002987;28;20198;-66
2023/06/29 07:39:31;;;;;;;5.17;3.90;;;27.00;81.00;;;;;;4993624;28;20558;-66
2023/06/29 07:41:56;;;;;;;6.20;4.43;;;27.10;76.00;;;;;;4993761;28;20168;-66
2023/06/29 07:44:22;;;;;;;6.43;3.83;;;27.10;74.60;;;;;;4993634;28;20422;-66
2023/06/29 07:46:47;;;;;;;5.93;4.40;;;27.10;75.60;;;;;;4993739;28;20211;-66
2023/06/29 07:49:13;;;;;;;4.60;4.17;;;26.60;76.00;;;;;;4995721;28;20215;-66
2023/06/29 07:51:39;;;;;;;6.47;4.60;;;26.40;76.50;;;;;;4999451;28;20266;-66
2023/06/29 07:54:06;;;;;;;5.30;4.13;;;26.60;76.30;;;;;;5001523;28;20182;-66
2023/06/29 07:56:32;;;;;;;5.37;4.00;;;26.80;76.90;;;;;;4993411;28;20223;-66
2023/06/29 07:58:57;;;;;;;6.90;4.30;;;27.30;75.20;;;;;;4993145;28;20520;-66
2023/06/29 08:01:23;;;;;;;6.07;5.47;;;27.30;74.00;;;;;;4993862;28;20186;-66
2023/06/29 08:03:48;;;;;;;4.97;4.53;;;27.30;72.80;;;;;;4995825;28;20198;-66
2023/06/29 08:06:14;;;;;;;3.90;3.60;;;27.40;73.20;;;;;;5004633;28;20221;-66
2023/06/29 08:08:40;;;;;;;4.70;4.30;;;27.70;71.60;;;;;;5012089;28;20655;-66
2023/06/29 08:11:05;;;;;;;4.50;4.10;;;27.70;70.90;;;;;;5012838;28;20468;-66
2023/06/29 08:13:31;;;;;;;4.63;4.23;;;27.60;71.70;;;;;;5012788;28;20171;-66
2023/06/29 08:15:56;;;;;;;5.73;3.80;;;27.30;69.20;;;;;;5012554;28;20210;-66
2023/06/29 08:18:22;;;;;;;4.90;3.60;;;27.20;69.70;;;;;;5003095;28;20229;-66
2023/06/29 08:20:48;;;;;;;7.57;4.03;;;27.80;69.20;;;;;;5004340;28;20183;-66
2023/06/29 08:23:14;;;;;;;3.90;3.60;;;28.30;67.60;;;;;;4993139;28;20175;-66
2023/06/29 08:25:40;;;;;;;7.97;3.60;;;28.60;65.70;;;;;;4992885;28;20211;-66
2023/06/29 08:28:05;;;;;;;8.00;5.10;;;28.40;65.30;;;;;;4992857;28;20429;-66
2023/06/29 08:30:31;;;;;;;3.80;3.37;;;28.20;65.60;;;;;;4992957;28;20199;-66
2023/06/29 08:32:56;;;;;;;3.97;3.67;;;28.00;65.80;;;;;;5002656;28;20179;-66
2023/06/29 08:35:22;;;;;;;6.70;3.67;;;28.00;65.40;;;;;;5000906;28;20281;-66
2023/06/29 08:37:47;;;;;;;4.13;3.70;;;28.00;63.90;;;;;;4992897;28;20179;-66
2023/06/29 08:40:17;;;;;;;5.27;3.23;;;28.00;65.40;;;;;;4992556;28;20656;-66
2023/06/29 08:42:43;;;;;;;5.20;3.80;;;28.30;63.80;;;;;;4992799;28;20667;-66
2023/06/29 08:45:09;;;;;;;4.00;3.60;;;28.30;61.10;;;;;;4995779;28;20457;-66
2023/06/29 08:47:37;;;;;;;3.23;3.03;;;27.80;62.00;;;;;;5000823;28;20551;-66
2023/06/29 08:50:05;;;;;;;3.73;3.23;;;27.20;61.60;;;;;;4992420;28;20426;-66
2023/06/29 08:52:33;;;;;;;4.30;3.30;;;26.50;63.60;;;;;;4992694;28;20561;-66
2023/06/29 08:55:00;;;;;;;5.83;3.40;;;26.00;65.10;;;;;;4992754;28;20429;-66
2023/06/29 08:57:28;;;;;;;3.57;3.23;;;25.90;67.20;;;;;;4992521;28;20434;-66
2023/06/29 08:59:54;;;;;;;4.90;3.37;;;26.30;66.70;;;;;;4996017;28;20883;-66
2023/06/29 09:02:20;;;;;;;3.60;3.30;;;26.60;66.10;;;;;;4999989;28;20485;-66
2023/06/29 09:04:45;;;;;;;4.90;3.80;;;27.20;65.40;;;;;;4992717;28;20816;-66
2023/06/29 09:07:12;;;;;;;4.20;3.00;;;27.20;64.00;;;;;;4992470;28;20203;-66
2023/06/29 09:09:37;;;;;;;3.77;3.47;;;27.60;63.10;;;;;;4992412;28;20171;-66
2023/06/29 09:12:03;;;;;;;4.50;4.10;;;27.60;61.50;;;;;;4992382;28;20897;-66
2023/06/29 09:14:32;;;;;;;5.47;3.37;;;28.00;62.20;;;;;;5000768;28;20609;-66
2023/06/29 09:17:01;;;;;;;3.40;3.10;;;28.30;61.20;;;;;;5009563;28;20696;-66
2023/06/29 09:19:27;;;;;;;7.50;3.60;;;28.70;59.60;;;;;;5012748;28;20516;-66
2023/06/29 09:21:52;;;;;;;14.00;3.70;;;29.70;57.10;;;;;;5015929;28;20425;-66
2023/06/29 09:24:18;;;;;;;3.90;3.17;;;30.70;56.30;;;;;;5015879;28;20508;-66
2023/06/29 09:26:48;;;;;;;3.53;3.23;;;30.40;53.50;;;;;;5015078;28;20249;-66
2023/06/29 09:29:14;;;;;;;5.37;3.30;;;29.80;54.00;;;;;;5004428;28;20255;-66
2023/06/29 09:31:39;;;;;;;3.90;3.60;;;29.60;54.80;;;;;;4996253;28;21019;-66
2023/06/29 09:34:18;;;;;;;3.47;3.17;;;28.70;54.80;;;;;;4996185;28;20229;-66
2023/06/29 09:36:45;;;;;;;4.40;4.10;;;28.70;55.20;;;;;;4996053;28;20194;-66
2023/06/29 09:39:11;;;;;;;3.83;3.17;;;29.30;54.70;;;;;;4995776;28;20418;-66
2023/06/29 09:41:51;;;;;;;3.50;3.30;;;29.80;53.60;;;;;;4998809;28;20947;-66
2023/06/29 09:44:21;;;;;;;4.43;3.77;;;30.10;53.10;;;;;;5003971;28;20445;-66
2023/06/29 09:46:48;;;;;;;4.50;3.43;;;30.20;52.80;;;;;;5011367;28;20461;-66
2023/06/29 09:49:14;;;;;;;5.93;2.90;;;30.60;52.40;;;;;;5015246;28;20474;-66
2023/06/29 09:51:40;;;;;;;3.57;3.27;;;31.10;52.10;;;;;;5015230;28;20907;-66
2023/06/29 09:54:10;;;;;;;5.40;3.40;;;30.70;51.30;;;;;;5015636;28;20422;-66
2023/06/29 09:56:37;;;;;;;3.70;2.80;;;30.90;51.30;;;;;;5006419;28;20457;-66
2023/06/29 09:59:03;;;;;;;3.10;2.90;;;31.50;51.00;;;;;;4997237;28;20441;-66
2023/06/29 10:01:29;;;;;;;4.23;3.00;;;31.60;50.10;;;;;;4995647;28;20426;-66
2023/06/29 10:03:56;;;;;;;6.30;4.00;;;32.10;49.70;;;;;;4995574;28;20422;-66
2023/06/29 10:06:33;;;;;;;4.20;3.83;;;32.60;48.60;;;;;;4995399;28;20767;-66
2023/06/29 10:09:00;;;;;;;3.53;2.90;;;33.00;48.40;;;;;;4998047;28;20433;-66
2023/06/29 10:11:29;;;;;;;3.20;3.00;;;33.20;46.80;;;;;;5003353;28;20418;-66
2023/06/29 10:14:02;;;;;;;6.70;3.60;;;33.00;46.20;;;;;;4995476;28;20838;-66
2023/06/29 10:16:30;;;;;;;3.00;2.77;;;31.90;46.90;;;;;;4995151;28;20501;-66
2023/06/29 10:19:02;;;;;;;4.23;3.40;;;31.90;47.60;;;;;;4995244;28;20455;-66
2023/06/29 10:21:28;;;;;;;3.40;3.10;;;32.70;46.80;;;;;;4995514;28;20429;-66
2023/06/29 10:23:55;;;;;;;4.13;2.97;;;33.50;45.50;;;;;;4998208;28;20446;-66
2023/06/29 10:26:21;;;;;;;3.63;3.33;;;32.30;45.60;;;;;;5002482;28;20462;-66
2023/06/29 10:28:47;;;;;;;4.27;3.97;;;31.90;46.30;;;;;;4994900;28;20415;-66
2023/06/29 10:31:18;;;;;;;4.10;3.80;;;32.20;47.00;;;;;;4994606;28;20987;-66
2023/06/29 10:33:51;;;;;;;5.17;3.80;;;33.10;45.50;;;;;;4995379;28;20171;-66
2023/06/29 10:36:17;;;;;;;4.00;3.70;;;33.30;45.20;;;;;;4994958;28;20470;-66
2023/06/29 10:38:42;;;;;;;5.67;3.77;;;33.60;44.50;;;;;;5004441;28;20527;-66
2023/06/29 10:41:27;;;;;;;4.53;3.83;;;34.60;43.50;;;;;;4995834;28;20183;-66
2023/06/29 10:43:55;;;;;;;4.60;3.27;;;34.90;42.80;;;;;;4995082;28;20179;-66
2023/06/29 10:46:46;;;;;;;4.20;3.90;;;36.00;41.80;;;;;;4994814;28;20467;-66
2023/06/29 10:49:28;;;;;;;4.50;4.10;;;37.30;39.30;;;;;;4994584;28;20520;-67
2023/06/29 10:52:04;;;;;;;4.33;4.00;;;37.70;38.10;;;;;;4994667;28;20473;-66
2023/06/29 10:54:30;;;;;;;3.90;3.60;;;37.10;36.80;;;;;;5000508;28;20516;-66
2023/06/29 10:57:01;;;;;;;5.87;3.73;;;37.40;37.00;;;;;;5002489;28;20603;-67
2023/06/29 10:59:27;;;;;;;7.00;3.60;;;38.30;36.30;;;;;;4994255;28;20849;-66
2023/06/29 11:01:53;;;;;;;4.70;4.30;;;39.10;34.70;;;;;;4994524;28;20411;-64
2023/06/29 11:04:21;;;;;;;4.33;4.03;;;38.90;33.60;;;;;;4994325;28;20419;-64
2023/06/29 11:06:46;;;;;;;5.53;3.93;;;37.60;34.40;;;;;;4994248;28;20482;-64
2023/06/29 11:09:13;;;;;;;5.27;4.77;;;36.60;35.30;;;;;;4994115;28;20509;-64
2023/06/29 11:11:40;;;;;;;5.27;4.87;;;35.30;36.50;;;;;;5001100;28;20181;-64
2023/06/29 11:14:06;;;;;;;4.83;4.43;;;35.50;36.40;;;;;;4995492;28;20485;-64
2023/06/29 11:16:33;;;;;;;5.73;5.10;;;36.00;36.30;;;;;;4993889;28;20466;-64
2023/06/29 11:19:01;;;;;;;4.97;4.53;;;35.50;36.90;;;;;;4993775;28;20172;-64
2023/06/29 11:21:27;;;;;;;4.50;4.10;;;35.90;35.90;;;;;;4994077;28;20481;-64
2023/06/29 11:23:53;;;;;;;8.23;4.10;;;37.10;35.70;;;;;;4994184;28;20430;-64
2023/06/29 11:26:20;;;;;;;5.37;4.77;;;38.80;34.00;;;;;;4997455;28;20268;-64
2023/06/29 11:28:48;;;;;;;6.63;4.40;;;40.20;32.40;;;;;;5005099;28;20171;-64
2023/06/29 11:31:16;;;;;;;4.80;4.40;;;41.10;31.30;;;;;;4994290;28;20427;-64
2023/06/29 11:33:49;;;;;;;5.30;4.90;;;40.30;30.80;;;;;;4993967;28;20426;-64
2023/06/29 11:36:14;;;;;;;5.47;5.00;;;39.60;30.70;;;;;;4993813;28;20451;-64
2023/06/29 11:38:40;;;;;;;5.30;4.83;;;39.50;31.30;;;;;;4993539;28;20516;-64
2023/06/29 11:41:06;;;;;;;5.77;5.27;;;39.50;31.20;;;;;;4993876;28;20267;-64
2023/06/29 11:43:32;;;;;;;5.00;4.43;;;39.40;30.90;;;;;;4998617;28;20590;-64
2023/06/29 11:45:58;;;;;;;4.60;4.30;;;38.70;31.00;;;;;;5004908;28;20707;-64
2023/06/29 11:48:23;;;;;;;5.23;4.80;;;39.30;31.10;;;;;;5012892;28;20171;-64
2023/06/29 11:50:49;;;;;;;5.33;4.93;;;39.00;30.70;;;;;;5013117;28;20414;-64
2023/06/29 11:53:15;;;;;;;6.27;5.77;;;39.30;30.90;;;;;;5013234;28;20175;-66
2023/06/29 11:55:50;;;;;;;6.17;4.97;;;39.30;30.50;;;;;;5013021;28;20197;-66
2023/06/29 11:58:16;;;;;;;5.87;5.17;;;40.00;30.30;;;;;;5003882;28;20441;-67
2023/06/29 12:00:41;;;;;;;4.63;4.23;;;40.00;30.00;;;;;;5004330;28;20453;-66
2023/06/29 12:03:09;;;;;;;7.50;5.60;;;39.90;30.00;;;;;;4994529;28;20574;-66
2023/06/29 12:05:40;;;;;;;5.00;4.60;;;38.90;30.00;;;;;;4993231;28;20208;-67
2023/06/29 12:08:07;;;;;;;4.40;4.00;;;38.60;30.90;;;;;;4993280;28;20422;-66
2023/06/29 12:10:37;;;;;;;5.10;4.60;;;38.10;30.80;;;;;;4993017;28;20449;-66
2023/06/29 12:13:03;;;;;;;5.60;5.10;;;37.00;31.80;;;;;;4993810;28;20481;-66
2023/06/29 12:15:31;;;;;;;6.07;5.37;;;36.40;32.50;;;;;;5004554;28;20878;-66
2023/06/29 12:18:08;;;;;;;6.93;6.10;;;36.00;33.20;;;;;;4995769;28;20610;-66
2023/06/29 12:20:39;;;;;;;5.80;5.30;;;35.30;33.50;;;;;;4993066;28;20422;-66
2023/06/29 12:23:04;;;;;;;6.23;5.73;;;34.80;34.10;;;;;;4993148;28;20433;-66
2023/06/29 12:25:30;;;;;;;7.00;6.40;;;34.40;34.20;;;;;;4992878;28;20462;-66
2023/06/29 12:27:55;;;;;;;6.97;6.40;;;34.00;34.80;;;;;;4992912;28;20171;-66
2023/06/29 12:30:21;;;;;;;6.90;5.53;;;33.50;35.90;;;;;;4997218;28;20267;-66
2023/06/29 12:32:47;;;;;;;7.53;6.93;;;32.80;36.40;;;;;;4983431;28;20288;-66
2023/06/29 12:35:13;;;;;;;6.90;6.30;;;32.50;37.00;;;;;;4992922;28;20617;-66
2023/06/29 12:37:39;;;;;;;7.73;6.73;;;32.50;37.10;;;;;;4992909;28;20423;-66
2023/06/29 12:40:05;;;;;;;6.63;5.73;;;32.60;37.10;;;;;;4992550;28;20570;-66
2023/06/29 12:42:32;;;;;;;7.83;6.50;;;32.80;37.40;;;;;;4992644;28;20652;-66